Time;durP1;ratioP1;P1;durP2;ratioP2;P2;SDS_P1;SDS_P2;PMS_P1;PMS_P2;Temp;Humidity;BMP_temperature;BMP_pressure;BME280_temperature;BME280_humidity;BME280_pressure;Samples;Min_cycle;Max_cycle;Signal;HPM_P1;HPM_P2
2023/11/11 00:02:46;;;;;;;5.72;1.50;;;13.00;64.70;;;;;;6098373;29;20398;-73
2023/11/11 00:05:49;;;;;;;3.63;1.33;;;13.00;65.40;;;;;;6099389;29;20337;-74
2023/11/11 00:08:52;;;;;;;2.28;0.88;;;13.00;64.30;;;;;;6098902;29;20461;-74
2023/11/11 00:11:58;;;;;;;3.55;1.10;;;12.90;64.40;;;;;;6098153;29;20048;-73
2023/11/11 00:15:01;;;;;;;6.30;1.33;;;12.90;64.50;;;;;;6098348;29;20035;-74
2023/11/11 00:18:04;;;;;;;1.85;1.33;;;12.90;64.50;;;;;;6098366;29;20042;-73
2023/11/11 00:21:06;;;;;;;6.10;1.30;;;12.90;64.40;;;;;;6098651;29;20046;-73
2023/11/11 00:24:12;;;;;;;1.80;1.05;;;12.90;64.40;;;;;;6098305;29;20103;-75
2023/11/11 00:27:16;;;;;;;2.60;1.20;;;13.00;64.40;;;;;;6082047;29;20111;-74
2023/11/11 00:30:21;;;;;;;3.00;1.40;;;13.00;64.30;;;;;;6097958;29;20032;-74
2023/11/11 00:33:23;;;;;;;2.85;1.40;;;12.90;65.10;;;;;;6097634;29;20043;-73
2023/11/11 00:36:25;;;;;;;2.53;1.27;;;13.00;64.30;;;;;;6065333;29;20040;-74
2023/11/11 00:39:27;;;;;;;2.83;1.25;;;13.00;64.20;;;;;;6097408;29;20177;-74
2023/11/11 00:42:30;;;;;;;5.05;1.33;;;13.00;64.20;;;;;;6097527;29;20465;-74
2023/11/11 00:45:34;;;;;;;5.40;1.27;;;13.00;64.30;;;;;;6097908;29;20651;-72
2023/11/11 00:48:37;;;;;;;3.60;1.30;;;13.00;64.40;;;;;;6098303;29;20091;-75
2023/11/11 00:51:40;;;;;;;5.15;1.20;;;13.00;64.50;;;;;;6091456;29;20381;-74
2023/11/11 00:54:47;;;;;;;2.20;1.02;;;13.00;64.60;;;;;;6111975;29;20036;-74
2023/11/11 00:57:49;;;;;;;3.83;0.90;;;13.00;64.60;;;;;;6097305;29;20028;-73
2023/11/11 01:00:53;;;;;;;3.38;1.42;;;13.00;64.60;;;;;;6111949;29;20147;-73
2023/11/11 01:03:55;;;;;;;10.75;1.88;;;13.00;64.70;;;;;;6097477;29;20059;-73
2023/11/11 01:06:58;;;;;;;4.30;1.83;;;13.00;64.70;;;;;;6096882;29;20149;-73
2023/11/11 01:09:59;;;;;;;5.80;2.45;;;13.00;64.70;;;;;;6111357;29;20421;-73
2023/11/11 01:13:01;;;;;;;4.30;2.03;;;13.00;65.00;;;;;;6111831;29;20048;-75
2023/11/11 01:16:03;;;;;;;6.15;2.30;;;12.90;65.20;;;;;;6097218;29;20040;-74
2023/11/11 01:19:05;;;;;;;5.80;2.38;;;12.90;65.60;;;;;;6080370;29;20036;-73
2023/11/11 01:22:09;;;;;;;6.07;3.05;;;12.80;65.70;;;;;;6097006;29;20465;-73
2023/11/11 01:25:12;;;;;;;7.38;3.45;;;12.80;65.90;;;;;;6111702;29;20176;-73
2023/11/11 01:28:13;;;;;;;7.43;2.88;;;12.80;66.20;;;;;;6095947;29;20477;-74
2023/11/11 01:31:15;;;;;;;4.43;2.85;;;12.80;66.50;;;;;;6113609;29;20093;-73
2023/11/11 01:34:18;;;;;;;5.55;2.92;;;12.70;66.60;;;;;;6113721;29;20104;-75
2023/11/11 01:37:25;;;;;;;4.45;2.40;;;12.70;66.90;;;;;;6098698;29;20059;-73
2023/11/11 01:40:27;;;;;;;7.38;3.72;;;12.70;67.00;;;;;;6097834;29;20127;-74
2023/11/11 01:43:31;;;;;;;6.13;2.55;;;12.70;67.10;;;;;;6096039;29;20055;-73
2023/11/11 01:46:34;;;;;;;4.95;2.80;;;12.70;67.10;;;;;;6074896;29;20058;-73
2023/11/11 01:49:36;;;;;;;8.13;2.97;;;12.70;67.10;;;;;;6096874;29;20111;-72
2023/11/11 01:52:39;;;;;;;5.90;3.05;;;12.70;67.10;;;;;;6048463;29;20143;-73
2023/11/11 01:55:42;;;;;;;2.67;1.60;;;12.70;67.00;;;;;;6079339;29;20122;-73
2023/11/11 01:58:44;;;;;;;3.25;1.92;;;12.80;66.90;;;;;;6078974;29;20459;-75
2023/11/11 02:01:49;;;;;;;4.85;1.80;;;12.80;66.70;;;;;;6063892;29;20075;-72
2023/11/11 02:04:51;;;;;;;3.78;1.90;;;12.80;66.50;;;;;;6096656;29;20040;-73
2023/11/11 02:07:53;;;;;;;7.28;1.83;;;12.80;66.30;;;;;;6079667;29;20030;-73
2023/11/11 02:10:55;;;;;;;6.55;1.80;;;12.90;66.20;;;;;;6096293;29;20047;-74
2023/11/11 02:13:59;;;;;;;8.07;1.73;;;12.90;66.10;;;;;;6079987;29;20107;-75
2023/11/11 02:17:02;;;;;;;1.60;1.15;;;12.90;66.10;;;;;;6064153;29;20044;-73
2023/11/11 02:20:24;;;;;;;4.72;1.02;;;12.90;66.10;;;;;;6100854;29;20546;-73
2023/11/11 02:23:47;;;;;;;3.17;1.45;;;12.90;66.20;;;;;;6120178;29;20059;-74
2023/11/11 02:26:52;;;;;;;2.10;1.20;;;12.90;66.20;;;;;;6120296;29;20035;-73
2023/11/11 02:29:54;;;;;;;3.20;1.50;;;12.90;66.00;;;;;;6119830;29;20036;-72
2023/11/11 02:32:56;;;;;;;2.03;1.52;;;12.90;65.90;;;;;;6102748;29;20148;-73
2023/11/11 02:36:00;;;;;;;3.03;1.13;;;13.00;65.90;;;;;;6119825;29;20034;-73
2023/11/11 02:39:05;;;;;;;13.18;1.00;;;13.00;65.60;;;;;;6120157;29;20040;-73
2023/11/11 02:42:07;;;;;;;3.00;1.05;;;13.00;65.40;;;;;;6103626;29;20039;-75
2023/11/11 02:45:09;;;;;;;1.88;1.00;;;13.00;65.20;;;;;;6101102;29;20043;-72
2023/11/11 02:48:12;;;;;;;4.68;0.98;;;13.00;65.10;;;;;;6095685;29;20454;-74
2023/11/11 02:51:14;;;;;;;5.03;1.23;;;13.00;65.10;;;;;;6099421;29;20325;-73
2023/11/11 02:54:16;;;;;;;2.55;1.20;;;13.00;65.00;;;;;;6099861;29;20036;-74
2023/11/11 02:57:20;;;;;;;1.38;0.90;;;13.00;64.80;;;;;;6099279;29;20040;-74
2023/11/11 03:00:22;;;;;;;3.30;0.88;;;13.00;64.70;;;;;;6100038;29;20170;-73
2023/11/11 03:03:25;;;;;;;1.33;0.82;;;13.00;64.70;;;;;;6114846;29;20044;-74
2023/11/11 03:06:28;;;;;;;4.95;1.02;;;13.00;64.60;;;;;;6114578;29;20358;-73
2023/11/11 03:09:32;;;;;;;3.28;1.17;;;13.00;64.50;;;;;;6098850;29;20032;-74
2023/11/11 03:12:36;;;;;;;4.03;1.20;;;13.00;64.50;;;;;;6098819;29;20039;-74
2023/11/11 03:15:37;;;;;;;2.00;1.10;;;13.00;64.60;;;;;;6067139;29;20036;-73
2023/11/11 03:18:40;;;;;;;2.70;1.25;;;13.10;65.40;;;;;;6099630;29;20032;-73
2023/11/11 03:21:45;;;;;;;1.83;0.60;;;13.10;64.60;;;;;;6114267;29;20036;-73
2023/11/11 03:24:48;;;;;;;4.30;1.00;;;13.00;64.60;;;;;;6099624;29;20091;-74
2023/11/11 03:27:53;;;;;;;4.95;1.15;;;13.00;64.70;;;;;;6099315;29;20485;-74
2023/11/11 03:31:19;;;;;;;1.77;1.00;;;12.90;64.70;;;;;;6071987;29;20048;-73
2023/11/11 03:34:22;;;;;;;5.20;0.90;;;12.90;64.70;;;;;;6072907;29;20044;-74
2023/11/11 03:37:25;;;;;;;2.50;0.90;;;12.90;64.70;;;;;;6057136;29;20041;-72
2023/11/11 03:40:29;;;;;;;3.83;1.30;;;12.90;64.90;;;;;;6057366;29;20041;-73
2023/11/11 03:43:32;;;;;;;1.88;1.17;;;12.90;64.90;;;;;;6057924;29;20048;-74
2023/11/11 03:46:35;;;;;;;7.88;1.38;;;12.90;64.90;;;;;;6060023;29;20053;-73
2023/11/11 03:49:38;;;;;;;7.07;1.35;;;12.90;64.90;;;;;;6033507;29;20037;-73
2023/11/11 03:52:42;;;;;;;2.85;1.08;;;12.90;65.00;;;;;;6048939;29;20612;-72
2023/11/11 03:55:45;;;;;;;2.70;0.73;;;12.90;65.10;;;;;;6048940;29;20137;-74
2023/11/11 03:58:47;;;;;;;3.05;1.23;;;12.80;65.10;;;;;;6048533;29;20120;-73
2023/11/11 04:01:51;;;;;;;3.28;0.82;;;12.80;65.10;;;;;;6055979;29;20068;-73
2023/11/11 04:04:55;;;;;;;1.92;1.40;;;12.90;65.20;;;;;;6057895;29;20397;-73
2023/11/11 04:08:23;;;;;;;7.68;2.15;;;12.70;65.10;;;;;;6058239;29;20040;-73
2023/11/11 04:11:24;;;;;;;3.75;0.82;;;12.70;65.10;;;;;;6057926;29;20050;-72
2023/11/11 04:14:26;;;;;;;1.33;0.82;;;12.70;65.20;;;;;;6074888;29;20120;-73
2023/11/11 04:17:28;;;;;;;3.97;0.90;;;12.70;65.30;;;;;;6075238;29;20032;-73
2023/11/11 04:20:32;;;;;;;2.00;1.13;;;12.60;65.40;;;;;;6057740;29;20047;-73
2023/11/11 04:23:34;;;;;;;0.90;0.80;;;12.60;65.50;;;;;;6058053;29;20545;-73
2023/11/11 04:26:37;;;;;;;8.05;1.33;;;12.50;65.70;;;;;;6057652;29;20040;-73
2023/11/11 04:29:40;;;;;;;13.38;1.20;;;12.50;65.90;;;;;;6058032;29;20135;-73
2023/11/11 04:32:44;;;;;;;2.08;1.00;;;12.40;65.90;;;;;;6074704;29;20470;-73
2023/11/11 04:35:45;;;;;;;1.50;0.88;;;12.40;66.00;;;;;;6057984;29;20036;-72
2023/11/11 04:38:49;;;;;;;0.70;0.63;;;12.40;66.20;;;;;;6059420;29;20033;-73
2023/11/11 04:41:54;;;;;;;3.25;1.10;;;12.30;66.20;;;;;;6059105;29;20037;-74
2023/11/11 04:44:56;;;;;;;1.45;1.00;;;12.30;66.30;;;;;;6059085;29;20037;-73
2023/11/11 04:47:58;;;;;;;1.13;0.85;;;12.30;66.40;;;;;;6113785;29;20119;-73
2023/11/11 04:51:01;;;;;;;9.55;0.93;;;12.20;66.40;;;;;;6097202;29;20056;-73
2023/11/11 04:54:03;;;;;;;2.83;0.88;;;12.20;66.40;;;;;;6097409;29;20499;-73
2023/11/11 04:57:07;;;;;;;3.75;0.80;;;12.20;66.60;;;;;;6097857;29;20025;-73
2023/11/11 05:00:10;;;;;;;2.35;0.70;;;12.20;66.70;;;;;;6097316;29;20090;-74
2023/11/11 05:03:12;;;;;;;3.22;1.25;;;12.10;66.80;;;;;;6097202;29;20036;-73
2023/11/11 05:06:19;;;;;;;1.65;0.82;;;12.10;67.10;;;;;;6097216;29;20047;-72
2023/11/11 05:09:22;;;;;;;2.42;0.85;;;12.00;67.30;;;;;;6096964;29;20028;-73
2023/11/11 05:12:25;;;;;;;1.33;0.70;;;12.00;67.30;;;;;;6096455;29;20060;-73
2023/11/11 05:15:30;;;;;;;2.80;0.93;;;12.00;67.50;;;;;;6111828;29;20047;-73
2023/11/11 05:18:32;;;;;;;1.00;0.75;;;11.90;67.50;;;;;;6096556;29;20061;-74
2023/11/11 05:21:36;;;;;;;3.17;0.93;;;11.90;67.60;;;;;;6097144;29;20099;-73
2023/11/11 05:24:41;;;;;;;2.42;1.08;;;11.80;67.70;;;;;;6080568;29;20087;-73
2023/11/11 05:27:46;;;;;;;3.60;0.60;;;11.80;67.80;;;;;;6096672;29;20100;-73
2023/11/11 05:30:49;;;;;;;1.50;0.82;;;11.80;67.80;;;;;;6095340;29;20028;-73
2023/11/11 05:33:52;;;;;;;4.00;0.95;;;11.90;68.00;;;;;;6096837;29;20634;-73
2023/11/11 05:36:55;;;;;;;2.03;0.88;;;11.90;68.00;;;;;;6097622;29;20054;-73
2023/11/11 05:39:57;;;;;;;3.50;0.95;;;11.90;67.90;;;;;;6097266;29;20036;-73
2023/11/11 05:43:00;;;;;;;3.05;1.13;;;11.90;67.90;;;;;;6095751;29;20044;-73
2023/11/11 05:46:03;;;;;;;3.38;1.60;;;11.90;67.90;;;;;;6096893;29;20020;-74
2023/11/11 05:49:04;;;;;;;1.20;0.75;;;11.90;67.90;;;;;;6079653;29;20051;-72
2023/11/11 05:52:07;;;;;;;4.18;1.15;;;12.10;68.00;;;;;;6079384;29;20059;-74
2023/11/11 05:55:13;;;;;;;1.20;0.80;;;11.90;68.00;;;;;;6096930;29;20102;-74
2023/11/11 05:58:15;;;;;;;6.82;1.33;;;12.00;68.00;;;;;;6080189;29;20123;-73
2023/11/11 06:01:17;;;;;;;3.72;0.88;;;12.00;67.80;;;;;;6096666;29;20020;-72
2023/11/11 06:04:22;;;;;;;6.55;0.80;;;12.00;67.80;;;;;;6080546;29;20046;-72
2023/11/11 06:07:25;;;;;;;6.47;1.33;;;12.00;67.90;;;;;;6079960;29;20103;-73
2023/11/11 06:10:27;;;;;;;4.85;1.55;;;11.90;67.90;;;;;;6097221;29;20055;-74
2023/11/11 06:13:31;;;;;;;4.32;1.73;;;11.90;68.10;;;;;;6079709;29;20068;-73
2023/11/11 06:16:35;;;;;;;3.35;1.17;;;11.90;68.30;;;;;;6097114;29;20060;-73
2023/11/11 06:19:37;;;;;;;2.58;1.02;;;11.90;68.40;;;;;;6096613;29;20036;-75
2023/11/11 06:22:38;;;;;;;12.05;1.08;;;11.90;68.30;;;;;;6096849;29;20731;-72
2023/11/11 06:25:41;;;;;;;1.77;0.98;;;11.80;68.30;;;;;;6100327;29;20024;-73
2023/11/11 06:28:42;;;;;;;2.08;0.80;;;11.80;68.30;;;;;;6084058;29;20050;-73
2023/11/11 06:31:45;;;;;;;1.95;1.33;;;11.80;68.40;;;;;;6100717;29;20063;-73
2023/11/11 06:34:49;;;;;;;2.45;1.00;;;11.80;68.50;;;;;;6100529;29;20051;-75
2023/11/11 06:37:59;;;;;;;;;;;11.70;68.40;;;;;;6101265;29;20031;-72
2023/11/11 06:41:01;;;;;;;3.92;1.77;;;11.70;68.50;;;;;;6100396;29;20575;-73
2023/11/11 06:44:05;;;;;;;1.67;1.58;;;11.70;68.50;;;;;;6083579;29;20032;-73
2023/11/11 06:47:08;;;;;;;4.07;1.40;;;11.60;68.50;;;;;;6100912;29;20129;-73
2023/11/11 06:50:13;;;;;;;3.15;1.55;;;11.50;68.60;;;;;;6114774;29;20054;-73
2023/11/11 06:53:18;;;;;;;3.42;1.70;;;11.50;68.70;;;;;;6099439;29;20167;-73
2023/11/11 06:56:22;;;;;;;1.00;0.90;;;11.50;68.90;;;;;;6100590;29;20063;-74
2023/11/11 06:59:24;;;;;;;4.78;0.95;;;11.50;69.00;;;;;;6099707;29;20119;-73
2023/11/11 07:02:26;;;;;;;4.32;1.65;;;11.40;69.00;;;;;;6085788;29;20028;-73
2023/11/11 07:05:29;;;;;;;1.52;1.10;;;11.50;69.00;;;;;;6102366;29;20638;-74
2023/11/11 07:08:33;;;;;;;3.13;1.25;;;11.50;69.10;;;;;;6103699;29;20123;-74
2023/11/11 07:11:37;;;;;;;5.85;1.40;;;11.50;69.10;;;;;;6099425;29;20100;-74
2023/11/11 07:14:40;;;;;;;1.67;1.27;;;11.50;69.00;;;;;;6099461;29;20036;-73
2023/11/11 07:17:44;;;;;;;1.80;1.02;;;11.50;69.00;;;;;;6099914;29;20075;-73
2023/11/11 07:20:47;;;;;;;4.50;1.33;;;11.60;68.90;;;;;;6099710;29;20046;-73
2023/11/11 07:23:51;;;;;;;1.35;1.00;;;11.60;68.80;;;;;;6099920;29;20028;-74
2023/11/11 07:26:52;;;;;;;2.40;1.50;;;11.50;68.70;;;;;;6099580;29;20048;-73
2023/11/11 07:29:56;;;;;;;4.03;1.70;;;11.60;68.70;;;;;;6099293;29;20032;-74
2023/11/11 07:32:58;;;;;;;4.97;1.27;;;11.50;68.50;;;;;;6113744;29;20159;-74
2023/11/11 07:36:05;;;;;;;10.35;1.85;;;11.50;68.50;;;;;;6099608;29;20032;-74
2023/11/11 07:39:08;;;;;;;9.77;1.93;;;11.50;68.50;;;;;;6099109;29;20111;-73
2023/11/11 07:42:11;;;;;;;2.45;1.25;;;11.60;68.50;;;;;;6099239;29;20275;-74
2023/11/11 07:45:13;;;;;;;1.95;1.38;;;11.60;68.50;;;;;;6099410;29;20051;-73
2023/11/11 07:48:18;;;;;;;4.10;1.33;;;11.60;68.50;;;;;;6099626;29;20107;-75
2023/11/11 07:51:20;;;;;;;3.38;1.63;;;11.60;68.60;;;;;;6066618;29;20419;-74
2023/11/11 07:54:21;;;;;;;2.17;1.73;;;11.60;68.50;;;;;;6066972;29;20092;-74
2023/11/11 07:57:25;;;;;;;8.32;2.28;;;11.60;68.50;;;;;;6082276;29;20028;-73
2023/11/11 08:00:39;;;;;;;8.95;2.58;;;11.70;68.50;;;;;;6099139;29;20117;-74
2023/11/11 08:03:42;;;;;;;3.13;2.13;;;11.80;68.50;;;;;;6082613;29;20048;-72
2023/11/11 08:06:46;;;;;;;4.63;2.70;;;11.80;68.20;;;;;;6099113;29;20040;-73
2023/11/11 08:09:50;;;;;;;3.08;1.90;;;11.70;68.00;;;;;;6098680;29;20139;-73
2023/11/11 08:12:54;;;;;;;2.90;1.88;;;11.80;68.10;;;;;;6081606;29;20306;-73
2023/11/11 08:15:57;;;;;;;8.95;2.28;;;11.80;68.20;;;;;;6099080;29;20032;-74
2023/11/11 08:19:01;;;;;;;11.93;3.17;;;11.90;68.30;;;;;;6098487;29;20090;-73
2023/11/11 08:22:05;;;;;;;5.70;2.63;;;11.90;68.00;;;;;;6081397;29;20148;-74
2023/11/11 08:25:06;;;;;;;9.48;3.17;;;12.00;67.90;;;;;;6096905;29;20335;-74
2023/11/11 08:28:08;;;;;;;7.75;2.95;;;12.00;67.70;;;;;;6097917;29;20060;-74
2023/11/11 08:31:11;;;;;;;13.02;2.83;;;12.00;67.70;;;;;;6099286;29;20076;-75
2023/11/11 08:34:14;;;;;;;5.72;3.42;;;11.90;67.80;;;;;;6083455;29;20032;-72
2023/11/11 08:37:17;;;;;;;5.15;3.00;;;12.00;68.00;;;;;;6098862;29;20119;-74
2023/11/11 08:40:20;;;;;;;8.27;3.50;;;12.10;67.90;;;;;;6098140;29;20039;-73
2023/11/11 08:43:23;;;;;;;7.97;4.63;;;12.10;67.60;;;;;;6097962;29;20486;-74
2023/11/11 08:46:27;;;;;;;8.52;4.60;;;12.10;67.50;;;;;;6097668;29;20036;-74
2023/11/11 08:49:30;;;;;;;11.30;4.88;;;12.10;67.50;;;;;;6097585;29;20072;-73
2023/11/11 08:52:41;;;;;;;16.40;5.60;;;12.20;67.40;;;;;;6096185;29;20054;-74
2023/11/11 08:55:48;;;;;;;12.10;5.35;;;12.30;67.40;;;;;;6096069;29;20237;-72
2023/11/11 08:58:50;;;;;;;10.07;4.85;;;12.40;67.30;;;;;;6111702;29;20098;-73
2023/11/11 09:01:57;;;;;;;9.98;4.82;;;12.40;67.10;;;;;;6096962;29;20040;-73
2023/11/11 09:05:00;;;;;;;15.77;6.47;;;12.50;66.70;;;;;;6095812;29;20032;-74
2023/11/11 09:08:03;;;;;;;10.13;4.90;;;12.60;66.60;;;;;;6097067;29;20036;-73
2023/11/11 09:11:06;;;;;;;13.25;6.47;;;12.60;66.40;;;;;;6079961;29;20036;-73
2023/11/11 09:14:10;;;;;;;16.85;7.15;;;12.60;66.10;;;;;;6096019;29;20454;-73
2023/11/11 09:17:13;;;;;;;18.95;9.85;;;12.70;66.00;;;;;;6095773;29;20453;-74
2023/11/11 09:20:18;;;;;;;19.35;9.30;;;12.70;65.80;;;;;;6095940;29;20044;-74
2023/11/11 09:23:20;;;;;;;20.75;9.82;;;12.70;66.00;;;;;;6097435;29;20119;-75
2023/11/11 09:26:24;;;;;;;26.10;10.63;;;12.80;66.10;;;;;;6101918;29;20173;-74
2023/11/11 09:29:27;;;;;;;12.10;6.47;;;12.80;66.00;;;;;;6097546;29;20046;-72
2023/11/11 09:32:30;;;;;;;18.45;8.07;;;12.90;65.70;;;;;;6096117;29;20125;-74
2023/11/11 09:35:32;;;;;;;18.23;7.88;;;13.00;65.50;;;;;;6096928;29;20103;-73
2023/11/11 09:38:37;;;;;;;15.98;7.25;;;13.00;65.40;;;;;;6095738;29;20462;-73
2023/11/11 09:41:41;;;;;;;9.95;5.40;;;13.10;65.20;;;;;;6111593;29;20616;-75
2023/11/11 09:44:44;;;;;;;12.23;5.03;;;13.20;64.90;;;;;;6080572;29;20390;-74
2023/11/11 09:48:04;;;;;;;15.52;7.25;;;13.20;64.10;;;;;;6097435;29;20064;-75
2023/11/11 09:51:12;;;;;;;18.55;8.40;;;13.30;64.20;;;;;;6080262;29;20177;-75
2023/11/11 09:54:16;;;;;;;15.00;6.05;;;13.40;64.30;;;;;;6065063;29;20618;-74
2023/11/11 09:57:20;;;;;;;15.85;5.70;;;13.70;63.40;;;;;;6097096;29;20035;-74
2023/11/11 10:00:27;;;;;;;11.80;5.30;;;13.90;62.90;;;;;;6083141;29;20028;-74
2023/11/11 10:03:30;;;;;;;16.47;6.03;;;14.20;62.00;;;;;;6101596;29;20123;-74
2023/11/11 10:06:35;;;;;;;13.88;6.22;;;14.50;61.40;;;;;;6084490;29;20058;-74
2023/11/11 10:09:38;;;;;;;18.85;9.43;;;14.70;61.30;;;;;;6084135;29;20372;-74
2023/11/11 10:12:40;;;;;;;12.80;6.07;;;14.90;61.20;;;;;;6085024;29;20160;-73
2023/11/11 10:15:44;;;;;;;14.52;5.88;;;15.20;60.70;;;;;;6101120;29;20028;-74
2023/11/11 10:18:53;;;;;;;14.10;6.28;;;15.40;59.80;;;;;;6101015;29;20123;-74
2023/11/11 10:22:02;;;;;;;12.65;5.78;;;15.60;59.20;;;;;;6100504;29;20055;-74
2023/11/11 10:25:05;;;;;;;;;;;15.90;58.70;;;;;;6084446;29;20127;-73
2023/11/11 10:28:17;;;;;;;13.65;6.13;;;16.10;57.50;;;;;;6101183;29;20058;-73
2023/11/11 10:31:21;;;;;;;12.57;5.57;;;16.30;57.00;;;;;;6100627;29;20032;-73
2023/11/11 10:34:28;;;;;;;12.40;6.78;;;16.70;56.10;;;;;;6083776;29;20048;-75
2023/11/11 10:37:34;;;;;;;19.70;8.68;;;17.10;55.60;;;;;;6100385;29;20035;-74
2023/11/11 10:40:37;;;;;;;10.38;5.60;;;17.60;54.90;;;;;;6083359;29;20126;-73
2023/11/11 10:43:44;;;;;;;8.40;4.70;;;18.10;53.90;;;;;;6084019;29;20044;-74
2023/11/11 10:46:49;;;;;;;11.40;5.00;;;18.50;51.80;;;;;;6102052;29;20453;-74
2023/11/11 10:49:54;;;;;;;13.80;4.97;;;19.10;50.20;;;;;;6101396;29;20036;-74
2023/11/11 10:53:01;;;;;;;13.23;5.60;;;19.50;49.80;;;;;;6084203;29;20051;-74
2023/11/11 10:56:03;;;;;;;12.80;5.13;;;20.00;48.60;;;;;;6083500;29;20514;-74
2023/11/11 10:59:13;;;;;;;14.25;5.13;;;20.50;48.20;;;;;;6098696;29;20127;-74
2023/11/11 11:02:15;;;;;;;11.25;4.82;;;21.00;46.30;;;;;;6098539;29;20063;-75
2023/11/11 11:05:50;;;;;;;11.50;5.22;;;21.60;45.20;;;;;;6100556;29;20025;-74
2023/11/11 11:09:14;;;;;;;7.93;4.30;;;22.20;43.90;;;;;;6057212;29;20048;-74
2023/11/11 11:12:52;;;;;;;7.07;3.20;;;22.70;42.70;;;;;;6071864;29;20049;-73
2023/11/11 11:15:55;;;;;;;9.10;2.75;;;23.20;41.00;;;;;;6072851;29;20192;-73
2023/11/11 11:19:06;;;;;;;4.88;1.67;;;23.30;40.10;;;;;;6057211;29;20434;-74
2023/11/11 11:22:15;;;;;;;6.35;1.98;;;23.40;39.50;;;;;;6072433;29;20128;-74
2023/11/11 11:25:48;;;;;;;4.05;1.67;;;23.20;38.70;;;;;;6057538;29;20502;-75
2023/11/11 11:29:19;;;;;;;5.40;2.00;;;23.10;38.30;;;;;;6073489;29;20059;-75
2023/11/11 11:32:23;;;;;;;6.63;1.85;;;23.40;36.40;;;;;;6072558;29;20048;-73
2023/11/11 11:35:33;;;;;;;3.15;1.45;;;23.20;36.40;;;;;;6057065;29;20048;-74
2023/11/11 11:38:39;;;;;;;6.88;2.78;;;23.30;36.40;;;;;;6072423;29;20040;-74
2023/11/11 11:41:45;;;;;;;6.85;2.92;;;23.80;36.80;;;;;;6072616;29;20060;-74
2023/11/11 11:44:58;;;;;;;5.68;2.90;;;23.60;37.40;;;;;;6079674;29;20381;-73
2023/11/11 11:48:13;;;;;;;7.93;3.25;;;23.10;38.70;;;;;;6058939;29;20446;-74
2023/11/11 11:51:19;;;;;;;8.85;3.95;;;22.60;39.20;;;;;;6075465;29;20100;-73
2023/11/11 11:54:26;;;;;;;7.85;2.85;;;22.10;40.10;;;;;;6059189;29;20434;-74
2023/11/11 11:57:29;;;;;;;5.80;2.90;;;21.40;40.20;;;;;;6058806;29;20459;-74
2023/11/11 12:00:36;;;;;;;6.68;2.85;;;20.80;41.10;;;;;;6074788;29;20041;-74
2023/11/11 12:03:40;;;;;;;11.90;2.53;;;20.30;42.10;;;;;;6075631;29;20040;-73
2023/11/11 12:06:45;;;;;;;4.60;2.15;;;19.90;42.70;;;;;;6075092;29;20043;-74
2023/11/11 12:09:56;;;;;;;10.35;3.03;;;19.60;42.90;;;;;;6073735;29;20042;-73
2023/11/11 12:13:01;;;;;;;12.50;2.42;;;19.20;43.50;;;;;;6042800;29;20110;-73
2023/11/11 12:16:05;;;;;;;10.85;4.65;;;18.90;43.90;;;;;;6074769;29;20761;-73
2023/11/11 12:19:24;;;;;;;18.00;7.45;;;18.60;44.00;;;;;;6075107;29;20028;-74
2023/11/11 12:22:27;;;;;;;7.72;3.22;;;18.30;44.20;;;;;;6074461;29;20033;-74
2023/11/11 12:25:28;;;;;;;15.23;2.70;;;18.20;44.20;;;;;;6057741;29;20324;-74
2023/11/11 12:28:31;;;;;;;4.70;2.00;;;17.90;43.90;;;;;;6075156;29;20028;-76
2023/11/11 12:31:53;;;;;;;2.00;1.40;;;18.00;43.90;;;;;;6058318;29;20352;-74
2023/11/11 12:34:58;;;;;;;4.63;1.67;;;18.00;43.90;;;;;;6073767;29;20115;-74
2023/11/11 12:38:19;;;;;;;5.68;1.25;;;18.10;43.80;;;;;;6074230;29;20028;-74
2023/11/11 12:41:23;;;;;;;7.18;1.27;;;18.10;43.80;;;;;;6057287;29;20119;-74
2023/11/11 12:44:25;;;;;;;7.55;2.17;;;18.10;43.80;;;;;;6057642;29;20046;-74
2023/11/11 12:47:26;;;;;;;10.40;1.40;;;18.00;43.50;;;;;;6057643;29;20048;-74
2023/11/11 12:50:32;;;;;;;3.67;1.42;;;18.10;43.40;;;;;;6074386;29;20111;-75
2023/11/11 12:53:43;;;;;;;3.00;0.65;;;18.10;43.20;;;;;;6057512;29;20056;-74
2023/11/11 12:56:49;;;;;;;1.27;0.68;;;18.00;43.00;;;;;;6057497;29;20040;-74
2023/11/11 12:59:57;;;;;;;2.40;0.60;;;18.00;42.30;;;;;;6073148;29;20180;-73
2023/11/11 13:03:00;;;;;;;4.03;1.17;;;18.00;41.90;;;;;;6073593;29;20146;-74
2023/11/11 13:06:04;;;;;;;4.32;0.68;;;17.90;42.20;;;;;;6073541;29;20131;-74
2023/11/11 13:09:18;;;;;;;3.63;1.02;;;17.90;41.80;;;;;;6074075;29;20149;-75
2023/11/11 13:12:23;;;;;;;5.97;1.63;;;17.70;41.90;;;;;;6073432;29;20049;-73
2023/11/11 13:15:24;;;;;;;1.10;0.77;;;17.50;42.20;;;;;;6074265;29;20028;-74
2023/11/11 13:18:25;;;;;;;3.50;1.50;;;17.40;42.80;;;;;;6073656;29;20068;-73
2023/11/11 13:21:28;;;;;;;1.02;0.50;;;17.40;43.00;;;;;;6056991;29;20112;-74
2023/11/11 13:24:32;;;;;;;2.92;0.95;;;17.30;43.10;;;;;;6072809;29;20059;-75
2023/11/11 13:27:36;;;;;;;2.25;0.95;;;17.20;43.00;;;;;;6056880;29;20048;-75
2023/11/11 13:30:40;;;;;;;0.98;0.70;;;17.10;43.10;;;;;;6073079;29;20052;-74
2023/11/11 13:33:50;;;;;;;2.28;1.25;;;17.00;43.20;;;;;;6087750;29;20420;-74
2023/11/11 13:36:56;;;;;;;2.63;0.75;;;16.90;43.30;;;;;;6073368;29;20052;-74
2023/11/11 13:39:59;;;;;;;0.90;0.52;;;16.90;43.00;;;;;;6073239;29;20036;-73
2023/11/11 13:43:04;;;;;;;5.75;1.15;;;16.80;43.00;;;;;;6087567;29;20108;-74
2023/11/11 13:46:08;;;;;;;4.47;1.20;;;16.70;43.10;;;;;;6082355;29;20725;-74
2023/11/11 13:49:12;;;;;;;2.45;0.77;;;16.70;43.20;;;;;;6079795;29;20036;-74
2023/11/11 13:52:15;;;;;;;2.13;0.65;;;16.70;43.10;;;;;;6096470;29;20403;-73
2023/11/11 13:55:18;;;;;;;4.97;1.13;;;16.70;43.10;;;;;;6096379;29;20068;-74
2023/11/11 13:58:22;;;;;;;2.05;0.93;;;16.70;43.00;;;;;;6096734;29;20080;-74
2023/11/11 14:01:24;;;;;;;0.82;0.40;;;16.70;42.70;;;;;;6095253;29;20028;-74
2023/11/11 14:04:47;;;;;;;0.90;0.60;;;16.60;42.70;;;;;;6096598;29;20174;-73
2023/11/11 14:07:49;;;;;;;1.52;0.60;;;16.60;43.00;;;;;;6046374;29;20341;-75
2023/11/11 14:10:51;;;;;;;0.95;0.47;;;16.60;42.80;;;;;;6046415;29;20485;-76
2023/11/11 14:13:54;;;;;;;1.08;0.50;;;16.60;42.80;;;;;;6030899;29;20135;-74
2023/11/11 14:16:55;;;;;;;1.35;0.60;;;16.60;42.70;;;;;;6031012;29;20477;-74
2023/11/11 14:19:57;;;;;;;3.08;0.77;;;16.60;42.60;;;;;;6046505;29;20040;-73
2023/11/11 14:22:59;;;;;;;1.63;0.93;;;16.60;42.40;;;;;;6031312;29;20069;-74
2023/11/11 14:26:04;;;;;;;4.90;0.98;;;16.60;42.40;;;;;;6046752;29;20133;-74
2023/11/11 14:29:08;;;;;;;3.60;0.65;;;16.60;42.40;;;;;;6046526;29;20041;-73
2023/11/11 14:32:16;;;;;;;5.30;0.85;;;16.70;42.20;;;;;;6046345;29;20641;-73
2023/11/11 14:35:20;;;;;;;4.85;0.88;;;16.70;42.10;;;;;;6046168;29;20045;-74
2023/11/11 14:38:23;;;;;;;3.45;0.93;;;16.70;42.20;;;;;;6046974;29;20120;-74
2023/11/11 14:41:28;;;;;;;2.45;0.55;;;16.90;42.40;;;;;;6045897;29;20085;-74
2023/11/11 14:44:31;;;;;;;4.50;0.70;;;16.70;42.30;;;;;;6047145;29;20063;-75
2023/11/11 14:47:33;;;;;;;6.63;1.05;;;16.70;42.30;;;;;;6030865;29;20066;-76
2023/11/11 14:50:36;;;;;;;0.52;0.45;;;16.60;42.30;;;;;;6012293;29;20041;-74
2023/11/11 14:53:39;;;;;;;7.57;1.27;;;16.60;42.50;;;;;;6030611;29;20120;-74
2023/11/11 14:56:41;;;;;;;4.57;1.48;;;16.50;42.50;;;;;;6035319;29;20061;-73
2023/11/11 14:59:44;;;;;;;4.38;0.85;;;16.50;42.60;;;;;;6083281;29;20135;-76
2023/11/11 15:02:45;;;;;;;2.60;0.60;;;16.50;42.80;;;;;;6100239;29;20024;-74
2023/11/11 15:05:49;;;;;;;3.90;1.38;;;16.40;43.00;;;;;;6083718;29;20084;-73
2023/11/11 15:08:52;;;;;;;2.95;0.80;;;16.40;43.00;;;;;;6099895;29;20028;-74
2023/11/11 15:11:54;;;;;;;4.85;0.80;;;16.40;43.10;;;;;;6099691;29;20056;-74
2023/11/11 15:14:57;;;;;;;7.22;1.17;;;16.30;43.30;;;;;;6082636;29;20448;-74
2023/11/11 15:18:00;;;;;;;3.15;0.50;;;16.30;43.40;;;;;;6099765;29;20161;-74
2023/11/11 15:21:01;;;;;;;8.20;0.82;;;16.30;43.50;;;;;;6099498;29;20039;-74
2023/11/11 15:24:07;;;;;;;3.20;0.68;;;16.40;43.60;;;;;;6067287;29;20493;-75
2023/11/11 15:27:08;;;;;;;9.13;1.08;;;16.40;43.70;;;;;;6100592;29;20139;-74
2023/11/11 15:30:15;;;;;;;3.28;0.70;;;16.30;43.80;;;;;;6099872;29;20135;-74
2023/11/11 15:33:18;;;;;;;13.63;2.20;;;16.30;44.00;;;;;;6083997;29;20108;-75
2023/11/11 15:36:30;;;;;;;1.73;0.65;;;16.30;44.20;;;;;;6099648;29;20339;-74
2023/11/11 15:39:33;;;;;;;2.03;0.65;;;16.20;44.20;;;;;;6099494;29;20071;-73
2023/11/11 15:42:36;;;;;;;2.17;0.77;;;16.20;44.40;;;;;;6100387;29;20038;-74
2023/11/11 15:45:39;;;;;;;3.30;0.60;;;16.10;44.40;;;;;;6067332;29;20104;-74
2023/11/11 15:48:42;;;;;;;4.38;0.57;;;16.10;44.60;;;;;;6098333;29;20068;-73
2023/11/11 15:51:43;;;;;;;4.85;0.60;;;16.10;44.70;;;;;;6115004;29;20626;-74
2023/11/11 15:54:47;;;;;;;1.52;0.80;;;16.10;44.90;;;;;;6098731;29;20039;-74
2023/11/11 15:57:49;;;;;;;3.30;0.90;;;16.00;45.10;;;;;;6099460;29;20104;-73
2023/11/11 16:00:53;;;;;;;2.55;0.63;;;15.90;45.30;;;;;;6098932;29;20036;-75